Home > Products > Valid Products > TAF

000
FTUS43 KGRB 031100
TAFGRB
TAF
KGRB 031120Z 0312/0412 20006KT P6SM SCT100 SCT250
     FM031500 21015G24KT P6SM SCT060 BKN200
     FM040000 22009KT P6SM BKN090
      TEMPO 0401/0405 33025G35KT 3SM TSRA BKN030CB
     FM040500 35007KT P6SM VCSH SCT030 BKN090
     FM041000 02008KT P6SM SCT018 BKN070=



000
FTUS43 KGRB 031100
TAFGRB
TAF
KGRB 031120Z 0312/0412 20006KT P6SM SCT100 SCT250
     FM031500 21015G24KT P6SM SCT060 BKN200
     FM040000 22009KT P6SM BKN090
      TEMPO 0401/0405 33025G35KT 3SM TSRA BKN030CB
     FM040500 35007KT P6SM VCSH SCT030 BKN090
     FM041000 02008KT P6SM SCT018 BKN070=



000
FTUS43 KGRB 031100
TAFGRB
TAF
KGRB 031120Z 0312/0412 20006KT P6SM SCT100 SCT250
     FM031500 21015G24KT P6SM SCT060 BKN200
     FM040000 22009KT P6SM BKN090
      TEMPO 0401/0405 33025G35KT 3SM TSRA BKN030CB
     FM040500 35007KT P6SM VCSH SCT030 BKN090
     FM041000 02008KT P6SM SCT018 BKN070=



000
FTUS43 KGRB 031100
TAFGRB
TAF
KGRB 031120Z 0312/0412 20006KT P6SM SCT100 SCT250
     FM031500 21015G24KT P6SM SCT060 BKN200
     FM040000 22009KT P6SM BKN090
      TEMPO 0401/0405 33025G35KT 3SM TSRA BKN030CB
     FM040500 35007KT P6SM VCSH SCT030 BKN090
     FM041000 02008KT P6SM SCT018 BKN070=



000
FTUS43 KGRB 030500
TAFGRB
TAF
KGRB 030520Z 0306/0406 20006KT P6SM SCT250
     FM031500 21015G24KT P6SM SCT060
     FM040200 22007KT P6SM BKN090=



000
FTUS43 KGRB 030500
TAFGRB
TAF
KGRB 030520Z 0306/0406 20006KT P6SM SCT250
     FM031500 21015G24KT P6SM SCT060
     FM040200 22007KT P6SM BKN090=



000
FTUS43 KGRB 022300
TAFGRB
TAF
KGRB 022325Z 0300/0324 22010G17KT P6SM SCT080
     FM030100 20006KT P6SM SCT250
     FM031500 21015G24KT P6SM SCT060=



000
FTUS43 KGRB 022300
TAFGRB
TAF
KGRB 022325Z 0300/0324 22010G17KT P6SM SCT080
     FM030100 20006KT P6SM SCT250
     FM031500 21015G24KT P6SM SCT060=



000
FTUS43 KGRB 022300
TAFGRB
TAF
KGRB 022325Z 0300/0324 22010G17KT P6SM SCT080
     FM030100 20006KT P6SM SCT250
     FM031500 21015G24KT P6SM SCT060=



000
FTUS43 KGRB 022300
TAFGRB
TAF
KGRB 022325Z 0300/0324 22010G17KT P6SM SCT080
     FM030100 20006KT P6SM SCT250
     FM031500 21015G24KT P6SM SCT060=



000
FTUS43 KGRB 021700
TAFGRB
TAF
KGRB 021723Z 0218/0318 23014G21KT P6SM SCT080
     FM030100 21006KT P6SM SCT100
     FM031400 19012G20KT P6SM SCT040 SCT080 PROB30 0316/0318 5SM
      TSRA OVC040CB=



000
FTUS43 KGRB 021700
TAFGRB
TAF
KGRB 021723Z 0218/0318 23014G21KT P6SM SCT080
     FM030100 21006KT P6SM SCT100
     FM031400 19012G20KT P6SM SCT040 SCT080 PROB30 0316/0318 5SM
      TSRA OVC040CB=



000
FTUS43 KGRB 021700
TAFGRB
TAF
KGRB 021723Z 0218/0318 23014G21KT P6SM SCT080
     FM030100 21006KT P6SM SCT100
     FM031400 19012G20KT P6SM SCT040 SCT080 PROB30 0316/0318 5SM
      TSRA OVC040CB=



000
FTUS43 KGRB 021700
TAFGRB
TAF
KGRB 021723Z 0218/0318 23014G21KT P6SM SCT080
     FM030100 21006KT P6SM SCT100
     FM031400 19012G20KT P6SM SCT040 SCT080 PROB30 0316/0318 5SM
      TSRA OVC040CB=



000
FTUS43 KGRB 021100
TAFGRB
TAF
KGRB 021131Z 0212/0312 19004KT P6SM BKN070 BKN100
     FM021500 22011KT P6SM SCT080 SCT100
     FM030100 19006KT P6SM SCT100 SCT250=



000
FTUS43 KGRB 021100
TAFGRB
TAF
KGRB 021131Z 0212/0312 19004KT P6SM BKN070 BKN100
     FM021500 22011KT P6SM SCT080 SCT100
     FM030100 19006KT P6SM SCT100 SCT250=



000
FTUS43 KGRB 021100
TAFGRB
TAF
KGRB 021131Z 0212/0312 19004KT P6SM BKN070 BKN100
     FM021500 22011KT P6SM SCT080 SCT100
     FM030100 19006KT P6SM SCT100 SCT250=



000
FTUS43 KGRB 021100
TAFGRB
TAF
KGRB 021131Z 0212/0312 19004KT P6SM BKN070 BKN100
     FM021500 22011KT P6SM SCT080 SCT100
     FM030100 19006KT P6SM SCT100 SCT250=



000
FTUS43 KGRB 020500
TAFGRB
TAF
KGRB 020520Z 0206/0306 18005KT P6SM SCT070 BKN100
     FM021000 18004KT P6SM BKN060
     FM021500 22010KT P6SM SCT060
     FM030100 19006KT P6SM SCT070=



000
FTUS43 KGRB 020500
TAFGRB
TAF
KGRB 020520Z 0206/0306 18005KT P6SM SCT070 BKN100
     FM021000 18004KT P6SM BKN060
     FM021500 22010KT P6SM SCT060
     FM030100 19006KT P6SM SCT070=



000
FTUS43 KGRB 020500
TAFGRB
TAF
KGRB 020520Z 0206/0306 18005KT P6SM SCT070 BKN100
     FM021000 18004KT P6SM BKN060
     FM021500 22010KT P6SM SCT060
     FM030100 19006KT P6SM SCT070=



000
FTUS43 KGRB 020500
TAFGRB
TAF
KGRB 020520Z 0206/0306 18005KT P6SM SCT070 BKN100
     FM021000 18004KT P6SM BKN060
     FM021500 22010KT P6SM SCT060
     FM030100 19006KT P6SM SCT070=



000
FTUS43 KGRB 012300
TAFGRB
TAF
KGRB 012335Z 0200/0224 21005KT P6SM SCT080 BKN110
     FM021400 22010KT P6SM SCT050
      TEMPO 0214/0218 BKN050=



000
FTUS43 KGRB 012300
TAFGRB
TAF
KGRB 012335Z 0200/0224 21005KT P6SM SCT080 BKN110
     FM021400 22010KT P6SM SCT050
      TEMPO 0214/0218 BKN050=



000
FTUS43 KGRB 012300
TAFGRB
TAF
KGRB 012335Z 0200/0224 21005KT P6SM SCT080 BKN110
     FM021400 22010KT P6SM SCT050
      TEMPO 0214/0218 BKN050=



000
FTUS43 KGRB 011700
TAFGRB
TAF
KGRB 011727Z 0118/0218 24008KT P6SM SCT100 BKN250
     FM012200 19005KT P6SM SCT070 BKN120
     FM021400 22010KT P6SM SCT050=



000
FTUS43 KGRB 011700
TAFGRB
TAF
KGRB 011727Z 0118/0218 24008KT P6SM SCT100 BKN250
     FM012200 19005KT P6SM SCT070 BKN120
     FM021400 22010KT P6SM SCT050=



000
FTUS43 KGRB 011100
TAFGRB
TAF
KGRB 011122Z 0112/0212 VRB03KT P6SM SKC
     FM011600 24008KT P6SM FEW050 SCT250
     FM012200 19005KT P6SM SCT070 BKN120=



000
FTUS43 KGRB 011100
TAFGRB
TAF
KGRB 011122Z 0112/0212 VRB03KT P6SM SKC
     FM011600 24008KT P6SM FEW050 SCT250
     FM012200 19005KT P6SM SCT070 BKN120=



000
FTUS43 KGRB 010500
TAFGRB
TAF
KGRB 010525Z 0106/0206 VRB03KT P6SM SKC
     FM011600 24008KT P6SM FEW040 SCT250
     FM012300 19007KT P6SM SCT070 BKN120=



000
FTUS43 KGRB 010500
TAFGRB
TAF
KGRB 010525Z 0106/0206 VRB03KT P6SM SKC
     FM011600 24008KT P6SM FEW040 SCT250
     FM012300 19007KT P6SM SCT070 BKN120=



000
FTUS43 KGRB 010500
TAFGRB
TAF
KGRB 010525Z 0106/0206 VRB03KT P6SM SKC
     FM011600 24008KT P6SM FEW040 SCT250
     FM012300 19007KT P6SM SCT070 BKN120=



000
FTUS43 KGRB 302300
TAFGRB
TAF
KGRB 302325Z 0100/0124 08005KT P6SM SCT070
     FM010300 VRB03KT P6SM SKC
     FM011600 24005KT P6SM FEW040 SCT250=



000
FTUS43 KGRB 302300
TAFGRB
TAF
KGRB 302325Z 0100/0124 08005KT P6SM SCT070
     FM010300 VRB03KT P6SM SKC
     FM011600 24005KT P6SM FEW040 SCT250=



000
FTUS43 KGRB 302300
TAFGRB
TAF
KGRB 302325Z 0100/0124 08005KT P6SM SCT070
     FM010300 VRB03KT P6SM SKC
     FM011600 24005KT P6SM FEW040 SCT250=



000
FTUS43 KGRB 302300
TAFGRB
TAF
KGRB 302325Z 0100/0124 08005KT P6SM SCT070
     FM010300 VRB03KT P6SM SKC
     FM011600 24005KT P6SM FEW040 SCT250=



000
FTUS43 KGRB 302000 AAA
TAFGRB
TAF AMD
KGRB 302017Z 3020/0118 04010KT P6SM FEW035
     FM302300 04009KT P6SM SCT070
     FM010500 VRB03KT P6SM SKC
     FM011600 24005KT P6SM FEW040 SCT200=



000
FTUS43 KGRB 302000 AAA
TAFGRB
TAF AMD
KGRB 302017Z 3020/0118 04010KT P6SM FEW035
     FM302300 04009KT P6SM SCT070
     FM010500 VRB03KT P6SM SKC
     FM011600 24005KT P6SM FEW040 SCT200=



000
FTUS43 KGRB 302000 AAA
TAFGRB
TAF AMD
KGRB 302017Z 3020/0118 04010KT P6SM FEW035
     FM302300 04009KT P6SM SCT070
     FM010500 VRB03KT P6SM SKC
     FM011600 24005KT P6SM FEW040 SCT200=



000
FTUS43 KGRB 301700
TAFGRB
TAF
KGRB 301734Z 3018/0118 04010G20KT P6SM FEW030
     FM302300 04009KT P6SM SCT070
     FM010500 VRB03KT P6SM SKC
     FM011600 24005KT P6SM FEW040 SCT200=



000
FTUS43 KGRB 301700
TAFGRB
TAF
KGRB 301734Z 3018/0118 04010G20KT P6SM FEW030
     FM302300 04009KT P6SM SCT070
     FM010500 VRB03KT P6SM SKC
     FM011600 24005KT P6SM FEW040 SCT200=



000
FTUS43 KGRB 301700
TAFGRB
TAF
KGRB 301734Z 3018/0118 04010G20KT P6SM FEW030
     FM302300 04009KT P6SM SCT070
     FM010500 VRB03KT P6SM SKC
     FM011600 24005KT P6SM FEW040 SCT200=



000
FTUS43 KGRB 301700
TAFGRB
TAF
KGRB 301734Z 3018/0118 04010G20KT P6SM FEW030
     FM302300 04009KT P6SM SCT070
     FM010500 VRB03KT P6SM SKC
     FM011600 24005KT P6SM FEW040 SCT200=



    US Dept of Commerce
    National Oceanic and Atmospheric Administration
    National Weather Service
    1325 East West Highway
    Silver Spring, MD 20910
    Page Author: NWS Internet Services Team
Disclaimer
Information Quality
Credits
Glossary
Privacy Policy
Freedom of Information Act (FOIA)
About Us
Career Opportunities